Time;durP1;ratioP1;P1;durP2;ratioP2;P2;SDS_P1;SDS_P2;PMS_P1;PMS_P2;Temp;Humidity;BMP_temperature;BMP_pressure;BME280_temperature;BME280_humidity;BME280_pressure;Samples;Min_cycle;Max_cycle;Signal;HPM_P1;HPM_P2
2023/03/11 00:00:18;;;;;;;1.20;1.20;;;3.50;99.90;;;;;;5031874;28;20277;-71
2023/03/11 00:02:46;;;;;;;1.27;1.27;;;3.40;99.90;;;;;;5035788;28;20183;-72
2023/03/11 00:05:41;;;;;;;1.40;1.30;;;3.40;99.90;;;;;;5030388;28;20212;-74
2023/03/11 00:08:10;;;;;;;1.17;1.17;;;3.40;99.90;;;;;;5023694;28;20239;-71
2023/03/11 00:10:39;;;;;;;1.00;1.00;;;3.50;99.90;;;;;;5034339;28;20188;-72
2023/03/11 00:13:07;;;;;;;2.55;1.35;;;3.50;99.90;;;;;;5026322;28;20219;-71
2023/03/11 00:15:33;;;;;;;1.00;1.00;;;3.50;99.90;;;;;;5029448;28;20180;-72
2023/03/11 00:17:59;;;;;;;1.02;1.02;;;3.40;99.90;;;;;;5027471;28;20209;-72
2023/03/11 00:20:28;;;;;;;1.17;1.17;;;3.40;99.90;;;;;;5032144;28;20706;-71
2023/03/11 00:22:54;;;;;;;0.97;0.97;;;3.40;99.90;;;;;;5028167;28;20212;-71
2023/03/11 00:25:21;;;;;;;1.02;1.02;;;3.40;99.90;;;;;;5031551;28;20219;-71
2023/03/11 00:27:46;;;;;;;1.23;1.23;;;3.60;99.90;;;;;;5024187;28;20204;-72
2023/03/11 00:30:14;;;;;;;1.10;1.10;;;3.60;99.90;;;;;;5036375;28;20192;-72
2023/03/11 00:32:39;;;;;;;1.58;1.58;;;3.50;99.90;;;;;;5034794;28;20711;-72
2023/03/11 00:35:06;;;;;;;0.98;0.98;;;3.50;99.90;;;;;;5030051;28;20187;-72
2023/03/11 00:37:31;;;;;;;1.15;1.15;;;3.60;99.90;;;;;;5026841;28;20549;-71
2023/03/11 00:39:58;;;;;;;1.20;1.20;;;3.50;99.90;;;;;;5031304;28;20208;-72
2023/03/11 00:42:23;;;;;;;1.20;1.20;;;3.50;99.90;;;;;;5031759;28;20230;-71
2023/03/11 00:44:49;;;;;;;0.90;0.90;;;3.50;99.90;;;;;;5028118;28;20534;-72
2023/03/11 00:47:15;;;;;;;1.05;1.05;;;3.50;99.90;;;;;;5035428;28;20208;-72
2023/03/11 00:49:40;;;;;;;0.90;0.90;;;3.50;99.90;;;;;;5023988;28;20201;-72
2023/03/11 00:52:06;;;;;;;0.90;0.90;;;3.50;99.90;;;;;;5027850;28;20658;-74
2023/03/11 00:54:31;;;;;;;1.75;1.30;;;3.50;99.90;;;;;;5028501;28;20671;-71
2023/03/11 00:56:57;;;;;;;0.65;0.65;;;3.50;99.90;;;;;;5027874;28;20235;-74
2023/03/11 00:59:23;;;;;;;0.87;0.87;;;3.50;99.90;;;;;;5028905;28;20200;-72
2023/03/11 01:01:48;;;;;;;0.90;0.90;;;3.40;99.90;;;;;;5025808;28;20208;-72
2023/03/11 01:04:14;;;;;;;0.70;0.70;;;3.40;99.90;;;;;;5024578;28;20181;-72
2023/03/11 01:06:39;;;;;;;1.20;1.20;;;3.40;99.90;;;;;;5035530;28;20291;-72
2023/03/11 01:09:05;;;;;;;1.17;1.17;;;3.40;99.90;;;;;;5038060;28;20199;-72
2023/03/11 01:11:31;;;;;;;1.05;1.05;;;3.40;99.90;;;;;;5020637;28;20644;-71
2023/03/11 01:13:57;;;;;;;0.95;0.95;;;3.40;99.90;;;;;;5024563;28;20173;-71
2023/03/11 01:16:22;;;;;;;1.08;0.82;;;3.30;99.90;;;;;;5026223;28;20176;-72
2023/03/11 01:18:48;;;;;;;0.60;0.60;;;3.30;99.90;;;;;;5029555;28;20193;-72
2023/03/11 01:21:14;;;;;;;0.93;0.93;;;3.30;99.90;;;;;;5030853;28;20690;-72
2023/03/11 01:23:40;;;;;;;1.10;1.10;;;3.30;99.90;;;;;;5035185;28;20185;-72
2023/03/11 01:26:06;;;;;;;1.48;0.95;;;3.30;99.90;;;;;;5029400;28;20177;-72
2023/03/11 01:28:31;;;;;;;1.00;1.00;;;3.30;99.90;;;;;;5030177;28;20330;-72
2023/03/11 01:30:57;;;;;;;0.85;0.85;;;3.20;99.90;;;;;;5037541;28;20235;-72
2023/03/11 01:33:23;;;;;;;1.08;1.00;;;3.40;99.90;;;;;;5034797;28;20185;-72
2023/03/11 01:35:48;;;;;;;1.00;1.00;;;3.50;99.90;;;;;;5022896;28;20176;-72
2023/03/11 01:38:15;;;;;;;1.00;1.00;;;3.40;99.90;;;;;;5036053;28;20255;-71
2023/03/11 01:40:47;;;;;;;1.00;1.00;;;3.40;99.90;;;;;;5040234;28;20204;-73
2023/03/11 01:43:36;;;;;;;1.10;1.10;;;3.40;99.90;;;;;;5040563;28;20181;-71
2023/03/11 01:46:10;;;;;;;1.15;1.00;;;3.40;99.90;;;;;;5039251;28;20207;-72
2023/03/11 01:48:37;;;;;;;1.00;0.95;;;3.40;99.90;;;;;;5034909;28;20242;-72
2023/03/11 01:51:04;;;;;;;1.20;1.20;;;3.30;99.90;;;;;;5031805;28;20210;-75
2023/03/11 01:53:30;;;;;;;0.90;0.90;;;3.30;99.90;;;;;;5031844;28;20173;-73
2023/03/11 01:55:56;;;;;;;1.08;1.08;;;3.20;99.90;;;;;;5031999;28;20187;-71
2023/03/11 01:58:29;;;;;;;1.20;1.20;;;3.30;99.90;;;;;;5031255;28;20275;-72
2023/03/11 02:00:56;;;;;;;0.82;0.82;;;3.30;99.90;;;;;;5035939;28;20683;-72
2023/03/11 02:03:27;;;;;;;1.17;1.17;;;3.20;99.90;;;;;;5034493;28;20190;-73
2023/03/11 02:05:55;;;;;;;1.05;1.05;;;3.20;99.90;;;;;;5034370;28;20211;-72
2023/03/11 02:08:21;;;;;;;1.15;1.15;;;3.30;99.90;;;;;;5039298;28;20211;-73
2023/03/11 02:10:48;;;;;;;1.38;1.35;;;3.20;99.90;;;;;;5032161;28;20607;-72
2023/03/11 02:13:15;;;;;;;1.95;1.70;;;3.30;99.90;;;;;;5036321;28;20169;-72
2023/03/11 02:15:41;;;;;;;0.93;0.93;;;3.30;99.90;;;;;;5029532;28;20205;-72
2023/03/11 02:18:07;;;;;;;0.80;0.80;;;3.30;99.90;;;;;;5040078;28;20177;-72
2023/03/11 02:20:55;;;;;;;1.10;1.10;;;3.20;99.90;;;;;;5024542;28;20221;-72
2023/03/11 02:23:27;;;;;;;0.75;0.75;;;3.10;99.90;;;;;;5033807;28;20256;-72
2023/03/11 02:26:26;;;;;;;1.00;1.00;;;3.10;99.90;;;;;;5035728;28;20172;-72
2023/03/11 02:28:53;;;;;;;1.10;1.10;;;3.10;99.90;;;;;;5032046;28;20244;-71
2023/03/11 02:31:19;;;;;;;0.82;0.82;;;3.20;99.90;;;;;;5027547;28;20537;-72
2023/03/11 02:33:47;;;;;;;0.73;0.73;;;3.10;99.90;;;;;;5031858;28;20184;-72
2023/03/11 02:36:31;;;;;;;0.98;0.98;;;3.20;99.90;;;;;;5029550;28;20195;-72
2023/03/11 02:38:56;;;;;;;1.08;1.08;;;3.10;99.90;;;;;;5033517;28;20255;-74
2023/03/11 02:41:22;;;;;;;0.95;0.95;;;3.10;99.90;;;;;;5029849;28;20188;-71
2023/03/11 02:43:48;;;;;;;0.93;0.93;;;3.10;99.90;;;;;;5040638;28;20174;-72
2023/03/11 02:46:14;;;;;;;0.95;0.95;;;3.10;99.90;;;;;;5032463;28;20672;-72
2023/03/11 02:48:41;;;;;;;1.27;1.17;;;3.10;99.90;;;;;;5036352;28;20201;-72
2023/03/11 02:51:06;;;;;;;1.40;1.40;;;3.10;99.90;;;;;;5035127;28;20191;-72
2023/03/11 02:53:37;;;;;;;0.90;0.90;;;3.00;99.90;;;;;;5026832;28;20181;-72
2023/03/11 02:56:03;;;;;;;1.25;1.25;;;3.00;99.90;;;;;;5029791;28;20201;-73
2023/03/11 02:58:29;;;;;;;1.08;1.08;;;3.00;99.90;;;;;;5039209;28;20223;-72
2023/03/11 03:00:54;;;;;;;1.20;1.20;;;3.00;99.90;;;;;;5036581;28;20220;-72
2023/03/11 03:03:20;;;;;;;1.20;1.20;;;3.00;99.90;;;;;;5034489;28;20192;-72
2023/03/11 03:05:46;;;;;;;0.88;0.88;;;3.00;99.90;;;;;;5034964;28;20180;-71
2023/03/11 03:08:11;;;;;;;1.00;1.00;;;3.10;99.90;;;;;;5033375;28;20205;-72
2023/03/11 03:10:37;;;;;;;1.15;1.15;;;3.20;99.90;;;;;;5031507;28;20204;-71
2023/03/11 03:13:03;;;;;;;1.17;1.17;;;3.20;99.90;;;;;;5027570;28;20184;-72
2023/03/11 03:15:29;;;;;;;1.20;1.20;;;3.20;99.90;;;;;;5035503;28;20749;-72
2023/03/11 03:17:55;;;;;;;0.95;0.95;;;3.10;99.90;;;;;;5042984;28;20225;-72
2023/03/11 03:20:21;;;;;;;1.10;1.10;;;3.10;99.90;;;;;;5037887;28;20216;-73
2023/03/11 03:22:47;;;;;;;1.33;1.33;;;3.10;99.90;;;;;;5026979;28;20189;-72
2023/03/11 03:25:13;;;;;;;0.93;0.93;;;3.10;99.90;;;;;;5032133;28;20184;-72
2023/03/11 03:27:38;;;;;;;1.33;1.33;;;3.00;99.90;;;;;;5030353;28;20710;-72
2023/03/11 03:30:05;;;;;;;1.17;1.17;;;2.90;99.90;;;;;;5019310;28;20223;-73
2023/03/11 03:32:31;;;;;;;1.20;1.20;;;2.90;99.90;;;;;;5028719;28;20172;-72
2023/03/11 03:34:58;;;;;;;1.20;1.20;;;2.70;99.90;;;;;;5030466;28;20200;-72
2023/03/11 03:37:25;;;;;;;1.50;1.37;;;2.70;99.90;;;;;;5032032;28;20177;-72
2023/03/11 03:39:50;;;;;;;1.10;1.10;;;2.70;99.90;;;;;;5028044;28;20204;-73
2023/03/11 03:42:16;;;;;;;1.10;1.10;;;2.70;99.90;;;;;;5038526;28;20180;-72
2023/03/11 03:44:42;;;;;;;1.10;1.10;;;2.60;99.90;;;;;;5027218;28;20192;-73
2023/03/11 03:47:07;;;;;;;0.93;0.93;;;2.50;99.90;;;;;;5031251;28;20232;-72
2023/03/11 03:49:33;;;;;;;1.00;1.00;;;2.50;99.90;;;;;;5025131;28;20204;-72
2023/03/11 03:51:58;;;;;;;1.03;1.00;;;2.40;99.90;;;;;;5036943;28;20176;-72
2023/03/11 03:54:24;;;;;;;0.77;0.77;;;2.40;99.90;;;;;;5030558;28;20216;-71
2023/03/11 03:56:49;;;;;;;0.80;0.80;;;2.50;99.90;;;;;;5029389;28;20618;-72
2023/03/11 03:59:15;;;;;;;0.90;0.90;;;2.50;99.90;;;;;;5038713;28;20184;-73
2023/03/11 04:01:40;;;;;;;0.90;0.90;;;2.60;99.90;;;;;;5030821;28;20172;-71
2023/03/11 04:04:06;;;;;;;0.90;0.90;;;2.60;99.90;;;;;;5038308;28;20609;-72
2023/03/11 04:06:31;;;;;;;0.88;0.88;;;2.60;99.90;;;;;;5030396;28;20188;-72
2023/03/11 04:08:57;;;;;;;0.80;0.80;;;2.60;99.90;;;;;;5032719;28;20262;-72
2023/03/11 04:11:23;;;;;;;1.00;1.00;;;2.60;99.90;;;;;;5031759;28;20673;-73
2023/03/11 04:13:48;;;;;;;0.80;0.80;;;2.60;99.90;;;;;;5028062;28;20697;-72
2023/03/11 04:16:22;;;;;;;0.80;0.80;;;2.60;99.90;;;;;;5035761;28;20192;-72
2023/03/11 04:18:48;;;;;;;1.88;1.10;;;2.60;99.90;;;;;;5030271;28;20204;-72
2023/03/11 04:21:14;;;;;;;0.90;0.90;;;2.60;99.90;;;;;;5029182;28;20191;-73
2023/03/11 04:23:39;;;;;;;1.20;1.10;;;2.60;99.90;;;;;;5033234;28;20193;-73
2023/03/11 04:26:05;;;;;;;1.20;1.20;;;2.60;99.90;;;;;;5029687;28;20176;-72
2023/03/11 04:28:31;;;;;;;1.00;1.00;;;2.60;99.90;;;;;;5028061;28;20671;-72
2023/03/11 04:30:57;;;;;;;0.70;0.70;;;2.40;99.90;;;;;;5037890;28;20203;-72
2023/03/11 04:33:22;;;;;;;0.97;0.97;;;2.50;99.90;;;;;;5031448;28;20636;-73
2023/03/11 04:35:48;;;;;;;1.30;1.30;;;2.50;99.90;;;;;;5037832;28;20183;-71
2023/03/11 04:38:14;;;;;;;0.93;0.93;;;2.40;99.90;;;;;;5030703;28;20181;-72
2023/03/11 04:40:39;;;;;;;1.10;1.10;;;2.40;99.90;;;;;;5033006;28;20249;-72
2023/03/11 04:43:05;;;;;;;1.00;1.00;;;2.30;99.90;;;;;;5026608;28;20180;-71
2023/03/11 04:45:31;;;;;;;1.20;1.15;;;2.30;99.90;;;;;;5017102;28;20280;-72
2023/03/11 04:47:56;;;;;;;0.87;0.87;;;2.30;99.90;;;;;;5028023;28;20622;-72
2023/03/11 04:50:22;;;;;;;1.20;1.20;;;2.40;99.90;;;;;;5031640;28;20235;-72
2023/03/11 04:52:48;;;;;;;1.30;1.20;;;2.40;99.90;;;;;;5029079;28;20185;-73
2023/03/11 04:55:14;;;;;;;1.52;1.42;;;2.40;99.90;;;;;;5028711;28;20181;-71
2023/03/11 04:57:41;;;;;;;1.30;1.30;;;2.20;99.90;;;;;;5030938;28;20195;-73
2023/03/11 05:00:10;;;;;;;1.40;1.30;;;2.30;99.90;;;;;;5035347;28;20218;-72
2023/03/11 05:02:37;;;;;;;0.97;0.97;;;2.30;99.90;;;;;;5030785;28;20644;-72
2023/03/11 05:05:03;;;;;;;2.00;1.80;;;2.10;99.90;;;;;;5030257;28;20629;-72
2023/03/11 05:07:29;;;;;;;1.73;1.63;;;2.20;99.90;;;;;;5030200;28;20204;-72
2023/03/11 05:09:55;;;;;;;1.10;1.10;;;2.20;99.90;;;;;;5027500;28;20204;-72
2023/03/11 05:12:20;;;;;;;1.20;1.20;;;2.20;99.90;;;;;;5030121;28;20185;-72
2023/03/11 05:14:46;;;;;;;1.40;1.40;;;2.10;99.90;;;;;;5029410;28;20632;-72
2023/03/11 05:17:13;;;;;;;1.10;1.10;;;2.10;99.90;;;;;;5028388;28;20189;-72
2023/03/11 05:19:39;;;;;;;1.13;1.13;;;2.10;99.90;;;;;;5032326;28;20782;-72
2023/03/11 05:22:05;;;;;;;1.07;1.07;;;2.20;99.90;;;;;;5020499;28;20302;-72
2023/03/11 05:24:31;;;;;;;1.20;1.20;;;2.20;99.90;;;;;;5026166;28;20185;-72
2023/03/11 05:26:57;;;;;;;1.00;1.00;;;2.10;99.90;;;;;;5024178;28;20601;-72
2023/03/11 05:29:24;;;;;;;0.90;0.90;;;2.00;99.90;;;;;;5033711;28;20209;-72
2023/03/11 05:31:50;;;;;;;1.30;1.30;;;2.00;99.90;;;;;;5028630;28;20241;-75
2023/03/11 05:34:16;;;;;;;1.50;1.37;;;2.00;99.90;;;;;;5026047;28;20278;-72
2023/03/11 05:36:42;;;;;;;1.13;1.13;;;2.00;99.90;;;;;;5029044;28;20189;-72
2023/03/11 05:39:08;;;;;;;1.00;1.00;;;1.90;99.90;;;;;;5029808;28;20200;-71
2023/03/11 05:41:35;;;;;;;1.30;1.20;;;2.00;99.90;;;;;;5025602;28;20493;-72
2023/03/11 05:44:01;;;;;;;2.63;1.50;;;2.00;99.90;;;;;;5034853;28;20188;-72
2023/03/11 05:46:27;;;;;;;1.20;1.13;;;2.00;99.90;;;;;;5028013;28;20495;-72
2023/03/11 05:48:52;;;;;;;0.90;0.90;;;2.10;99.90;;;;;;5025903;28;20208;-72
2023/03/11 05:51:18;;;;;;;1.40;1.33;;;2.00;99.90;;;;;;5026387;28;20181;-72
2023/03/11 05:53:47;;;;;;;1.20;1.20;;;2.00;99.90;;;;;;5027844;28;20181;-72
2023/03/11 05:56:14;;;;;;;1.97;1.43;;;1.90;99.90;;;;;;5030405;28;20175;-71
2023/03/11 05:58:40;;;;;;;1.27;1.27;;;1.90;99.90;;;;;;5023037;28;20260;-72
2023/03/11 06:01:10;;;;;;;1.23;1.17;;;1.90;99.90;;;;;;5033681;28;20299;-72
2023/03/11 06:03:36;;;;;;;1.47;1.40;;;1.90;99.90;;;;;;5029480;28;20184;-72
2023/03/11 06:06:03;;;;;;;1.60;1.50;;;1.80;99.90;;;;;;5032813;28;20186;-73
2023/03/11 06:08:29;;;;;;;1.63;1.53;;;1.80;99.90;;;;;;5025713;28;20216;-72
2023/03/11 06:11:04;;;;;;;1.07;1.03;;;1.70;99.90;;;;;;5037040;28;20205;-71
2023/03/11 06:13:29;;;;;;;1.90;1.27;;;1.80;99.90;;;;;;5034251;28;20242;-75
2023/03/11 06:15:55;;;;;;;1.83;1.73;;;1.70;99.90;;;;;;5029476;28;20181;-72
2023/03/11 06:18:21;;;;;;;1.20;1.20;;;1.90;99.90;;;;;;5035843;28;20188;-74
2023/03/11 06:20:46;;;;;;;0.90;0.90;;;1.90;99.90;;;;;;5035420;28;20667;-72
2023/03/11 06:23:12;;;;;;;2.23;1.23;;;1.90;99.90;;;;;;5036225;28;20188;-72
2023/03/11 06:25:37;;;;;;;2.80;1.43;;;1.80;99.90;;;;;;5029257;28;20177;-72
2023/03/11 06:28:04;;;;;;;1.70;1.47;;;1.80;99.90;;;;;;5040420;28;20207;-72
2023/03/11 06:30:30;;;;;;;1.40;1.40;;;1.90;99.90;;;;;;5036004;28;20196;-73
2023/03/11 06:32:55;;;;;;;1.20;1.10;;;1.90;99.90;;;;;;5033905;28;20188;-72
2023/03/11 06:35:21;;;;;;;1.60;1.50;;;1.90;99.90;;;;;;5038407;28;20185;-73
2023/03/11 06:37:46;;;;;;;1.70;1.60;;;1.80;99.90;;;;;;5039244;28;20188;-73
2023/03/11 06:40:12;;;;;;;2.23;1.40;;;1.80;99.90;;;;;;5032946;28;20232;-72
2023/03/11 06:42:38;;;;;;;1.03;1.00;;;1.80;99.90;;;;;;5025537;28;20184;-73
2023/03/11 06:45:05;;;;;;;1.20;1.13;;;1.80;99.90;;;;;;5022029;28;20193;-72
2023/03/11 06:47:31;;;;;;;1.93;1.43;;;1.90;99.90;;;;;;5024273;28;20211;-72
2023/03/11 06:49:56;;;;;;;1.20;1.20;;;1.90;99.90;;;;;;5035982;28;20564;-72
2023/03/11 06:52:22;;;;;;;1.60;1.50;;;2.00;99.90;;;;;;5031772;28;20217;-71
2023/03/11 06:54:47;;;;;;;1.10;1.10;;;2.20;99.90;;;;;;5031689;28;20188;-72
2023/03/11 06:57:13;;;;;;;1.07;1.03;;;2.20;99.90;;;;;;5033373;28;20192;-75
2023/03/11 06:59:38;;;;;;;1.63;1.37;;;2.40;99.90;;;;;;5031396;28;20215;-72
2023/03/11 07:02:05;;;;;;;1.03;1.03;;;2.50;99.90;;;;;;5032176;28;20224;-72
2023/03/11 07:04:31;;;;;;;1.30;1.30;;;2.60;99.90;;;;;;5035656;28;20246;-72
2023/03/11 07:06:57;;;;;;;1.38;1.35;;;2.60;99.90;;;;;;5035861;28;20188;-72
2023/03/11 07:09:24;;;;;;;1.58;1.48;;;2.70;99.90;;;;;;5033996;28;20546;-72
2023/03/11 07:11:51;;;;;;;1.60;1.50;;;2.70;99.90;;;;;;5034480;28;20252;-73
2023/03/11 07:14:18;;;;;;;1.48;1.38;;;2.80;99.90;;;;;;5035923;28;20191;-72
2023/03/11 07:16:44;;;;;;;0.90;0.90;;;2.80;99.90;;;;;;5032270;28;20185;-72
2023/03/11 07:19:10;;;;;;;1.40;1.27;;;2.80;99.90;;;;;;5030824;28;20222;-74
2023/03/11 07:21:36;;;;;;;2.93;1.27;;;2.80;99.90;;;;;;5034596;28;20351;-74
2023/03/11 07:24:02;;;;;;;5.13;1.70;;;2.80;99.90;;;;;;5029390;28;20271;-72
2023/03/11 07:26:29;;;;;;;3.25;1.90;;;2.80;99.90;;;;;;5034818;28;20180;-73
2023/03/11 07:28:56;;;;;;;1.50;1.40;;;2.80;99.90;;;;;;5026589;28;20694;-72
2023/03/11 07:31:25;;;;;;;1.85;1.70;;;2.90;99.90;;;;;;5039265;28;20232;-72
2023/03/11 07:33:51;;;;;;;1.33;1.23;;;2.80;99.90;;;;;;5028069;28;20191;-72
2023/03/11 07:36:19;;;;;;;1.30;1.30;;;2.80;99.90;;;;;;5032890;28;20180;-72
2023/03/11 07:38:46;;;;;;;1.60;1.60;;;2.70;99.90;;;;;;5027213;28;20539;-72
2023/03/11 07:41:13;;;;;;;1.40;1.40;;;2.70;99.90;;;;;;5027308;28;20208;-72
2023/03/11 07:43:40;;;;;;;2.10;1.40;;;2.50;99.90;;;;;;5028291;28;20191;-73
2023/03/11 07:46:07;;;;;;;1.23;1.13;;;2.50;99.90;;;;;;5031160;28;20177;-72
2023/03/11 07:48:34;;;;;;;1.30;1.20;;;2.30;99.90;;;;;;5037431;28;20219;-72
2023/03/11 07:51:05;;;;;;;1.27;1.20;;;2.40;99.90;;;;;;5032141;28;20196;-72
2023/03/11 07:53:32;;;;;;;1.57;1.53;;;2.40;99.90;;;;;;5037262;28;20175;-73
2023/03/11 07:55:58;;;;;;;1.60;1.50;;;2.30;99.90;;;;;;5026372;28;20264;-72
2023/03/11 07:58:24;;;;;;;1.67;1.57;;;2.40;99.90;;;;;;5030489;28;20189;-72
2023/03/11 08:00:51;;;;;;;1.10;1.10;;;2.40;99.90;;;;;;5032334;28;20214;-72
2023/03/11 08:03:17;;;;;;;1.38;1.30;;;2.50;99.90;;;;;;5028609;28;20187;-72
2023/03/11 08:05:42;;;;;;;2.10;1.30;;;2.70;99.90;;;;;;5029392;28;20184;-72
2023/03/11 08:08:08;;;;;;;1.30;1.23;;;2.80;99.90;;;;;;5032613;28;20283;-72
2023/03/11 08:10:38;;;;;;;1.30;1.30;;;3.00;99.90;;;;;;5042160;28;20208;-72
2023/03/11 08:13:03;;;;;;;1.30;1.30;;;3.20;99.90;;;;;;5031801;28;20172;-73
2023/03/11 08:15:29;;;;;;;2.15;1.52;;;3.40;99.90;;;;;;5030099;28;20188;-72
2023/03/11 08:17:55;;;;;;;1.77;1.25;;;3.70;99.90;;;;;;5038252;28;20647;-72
2023/03/11 08:20:20;;;;;;;1.08;1.08;;;3.90;99.90;;;;;;5029987;28;20243;-73
2023/03/11 08:22:46;;;;;;;1.30;1.20;;;4.00;99.90;;;;;;5039551;28;20191;-72
2023/03/11 08:25:11;;;;;;;3.95;1.33;;;4.00;99.90;;;;;;5034643;28;20176;-74
2023/03/11 08:27:37;;;;;;;1.40;1.30;;;3.90;99.90;;;;;;5041519;28;20709;-72
2023/03/11 08:30:04;;;;;;;1.65;1.42;;;4.00;99.90;;;;;;5025095;28;20199;-72
2023/03/11 08:32:30;;;;;;;1.27;1.27;;;4.10;99.90;;;;;;5035778;28;20180;-73
2023/03/11 08:34:56;;;;;;;1.20;1.15;;;4.10;99.90;;;;;;5034763;28;20259;-72
2023/03/11 08:37:22;;;;;;;1.52;1.30;;;4.10;99.90;;;;;;5028232;28;20184;-72
2023/03/11 08:39:47;;;;;;;1.45;1.45;;;4.20;99.90;;;;;;5025459;28;20201;-72
2023/03/11 08:42:13;;;;;;;2.05;1.33;;;4.30;99.90;;;;;;5026426;28;20211;-72
2023/03/11 08:44:38;;;;;;;1.30;1.30;;;4.30;99.90;;;;;;5031209;28;20250;-73
2023/03/11 08:47:04;;;;;;;1.45;1.38;;;4.40;99.90;;;;;;5043291;28;20275;-72
2023/03/11 08:49:30;;;;;;;1.40;1.40;;;4.40;99.90;;;;;;5027621;28;20196;-73
2023/03/11 08:51:55;;;;;;;1.58;1.48;;;4.60;99.90;;;;;;5032541;28;20249;-72
2023/03/11 08:54:21;;;;;;;2.65;1.50;;;4.80;99.90;;;;;;5031695;28;20177;-73
2023/03/11 08:56:46;;;;;;;1.20;1.10;;;5.10;99.90;;;;;;5024030;28;20184;-73
2023/03/11 08:59:13;;;;;;;0.90;0.90;;;5.30;99.90;;;;;;5027898;28;20193;-72
2023/03/11 09:01:39;;;;;;;1.20;1.20;;;5.80;99.90;;;;;;5030666;28;20204;-73
2023/03/11 09:04:04;;;;;;;1.20;1.13;;;6.40;99.60;;;;;;5022572;28;20212;-72
2023/03/11 09:06:30;;;;;;;1.10;1.10;;;6.90;99.20;;;;;;5023851;28;20181;-72
2023/03/11 09:08:56;;;;;;;1.08;1.08;;;7.30;98.00;;;;;;5031530;28;20207;-73
2023/03/11 09:11:22;;;;;;;1.10;1.10;;;7.40;95.50;;;;;;5043629;28;20184;-73
2023/03/11 09:13:48;;;;;;;0.95;0.95;;;7.50;95.70;;;;;;5023671;28;20188;-73
2023/03/11 09:16:16;;;;;;;1.48;1.00;;;7.70;94.20;;;;;;5026100;28;20180;-75
2023/03/11 09:18:42;;;;;;;1.00;1.00;;;7.60;93.80;;;;;;5042493;28;20192;-75
2023/03/11 09:21:09;;;;;;;1.02;0.90;;;7.40;94.10;;;;;;5035025;28;20211;-76
2023/03/11 09:23:34;;;;;;;1.10;1.00;;;7.40;93.50;;;;;;5037123;28;20667;-74
2023/03/11 09:26:00;;;;;;;1.52;0.90;;;7.50;92.40;;;;;;5030350;28;20263;-75
2023/03/11 09:28:26;;;;;;;1.60;1.27;;;7.50;92.80;;;;;;5031932;28;20580;-77
2023/03/11 09:30:51;;;;;;;1.00;1.00;;;7.50;93.10;;;;;;5032747;28;20280;-75
2023/03/11 09:33:17;;;;;;;1.33;1.10;;;7.10;94.30;;;;;;5032806;28;20169;-77
2023/03/11 09:35:43;;;;;;;0.80;0.80;;;6.50;96.20;;;;;;5028140;28;20571;-75
2023/03/11 09:38:09;;;;;;;0.90;0.90;;;6.30;96.70;;;;;;5030302;28;20175;-76
2023/03/11 09:40:55;;;;;;;1.17;0.65;;;6.20;95.80;;;;;;5037888;28;20733;-75
2023/03/11 09:43:21;;;;;;;0.60;0.60;;;6.00;97.00;;;;;;5033781;28;20244;-76
2023/03/11 09:46:29;;;;;;;0.80;0.80;;;5.80;97.90;;;;;;5033321;28;20687;-76
2023/03/11 09:49:19;;;;;;;2.25;0.80;;;5.90;97.80;;;;;;5049339;28;20281;-76
2023/03/11 09:52:15;;;;;;;0.60;0.60;;;5.90;97.20;;;;;;5040049;28;20186;-75
2023/03/11 09:54:52;;;;;;;0.73;0.73;;;5.80;97.30;;;;;;5034228;28;20658;-77
2023/03/11 09:57:25;;;;;;;0.90;0.90;;;5.90;97.10;;;;;;5032377;28;20689;-76
2023/03/11 09:59:51;;;;;;;0.80;0.80;;;5.40;98.30;;;;;;5024058;28;20618;-77
2023/03/11 10:02:20;;;;;;;0.70;0.70;;;5.10;99.90;;;;;;5040347;28;20225;-75
2023/03/11 10:05:04;;;;;;;0.80;0.80;;;4.90;99.90;;;;;;5034769;28;20719;-75
2023/03/11 10:07:38;;;;;;;0.93;0.70;;;5.30;99.90;;;;;;5031817;28;20258;-76
2023/03/11 10:10:06;;;;;;;0.50;0.50;;;6.20;97.80;;;;;;5035838;28;20189;-76
2023/03/11 10:12:40;;;;;;;0.80;0.80;;;6.70;96.20;;;;;;5036508;28;20211;-75
2023/03/11 10:15:40;;;;;;;0.60;0.60;;;6.70;95.70;;;;;;5031925;28;20184;-75
2023/03/11 10:18:24;;;;;;;1.63;0.73;;;6.30;96.50;;;;;;5038246;28;20182;-75
2023/03/11 10:20:56;;;;;;;0.50;0.50;;;6.10;96.30;;;;;;5037459;28;20258;-75
2023/03/11 10:23:56;;;;;;;0.60;0.60;;;6.10;96.60;;;;;;5042089;28;20204;-76
2023/03/11 10:26:21;;;;;;;1.63;0.82;;;6.10;95.20;;;;;;5039416;28;20190;-76
2023/03/11 10:29:17;;;;;;;0.88;0.88;;;5.90;96.60;;;;;;5040310;28;20593;-75
2023/03/11 10:31:49;;;;;;;0.80;0.80;;;7.80;96.20;;;;;;5029887;28;20656;-76
2023/03/11 10:34:22;;;;;;;0.70;0.70;;;9.00;91.10;;;;;;5032917;28;20199;-76
2023/03/11 10:36:50;;;;;;;0.82;0.82;;;8.40;90.70;;;;;;5025597;28;20175;-75
2023/03/11 10:39:17;;;;;;;0.60;0.60;;;7.80;90.10;;;;;;5036546;28;20203;-75
2023/03/11 10:41:52;;;;;;;0.80;0.80;;;6.90;91.50;;;;;;5022714;28;20251;-76
2023/03/11 10:44:35;;;;;;;0.63;0.60;;;6.10;92.10;;;;;;5021980;28;20314;-75
2023/03/11 10:47:01;;;;;;;1.08;1.08;;;5.70;93.10;;;;;;5032217;28;20192;-76
2023/03/11 10:49:27;;;;;;;2.65;1.23;;;5.40;93.30;;;;;;5030022;28;20738;-76
2023/03/11 10:51:54;;;;;;;1.05;1.05;;;5.30;94.40;;;;;;5027642;28;20170;-76
2023/03/11 10:54:42;;;;;;;1.20;1.20;;;5.30;94.90;;;;;;5036201;28;20179;-76
2023/03/11 10:57:32;;;;;;;1.00;1.00;;;5.60;95.50;;;;;;5032672;28;20535;-75
2023/03/11 11:00:11;;;;;;;1.63;0.90;;;5.80;94.80;;;;;;5032010;28;20196;-75
2023/03/11 11:02:49;;;;;;;1.55;1.45;;;5.80;94.50;;;;;;5024083;28;20252;-75
2023/03/11 11:05:14;;;;;;;1.08;1.08;;;5.80;94.90;;;;;;5027292;28;20187;-76
2023/03/11 11:07:41;;;;;;;0.93;0.93;;;6.00;94.80;;;;;;5026994;28;20684;-75
2023/03/11 11:10:15;;;;;;;1.40;1.40;;;6.60;94.70;;;;;;5039059;28;20196;-75
2023/03/11 11:13:21;;;;;;;1.10;1.08;;;7.00;92.80;;;;;;5035497;28;20601;-74
2023/03/11 11:15:54;;;;;;;1.83;1.17;;;7.60;93.50;;;;;;5027091;28;20187;-75
2023/03/11 11:18:44;;;;;;;1.15;1.15;;;7.90;90.80;;;;;;5025552;28;20176;-76
2023/03/11 11:21:38;;;;;;;1.20;1.20;;;8.70;92.00;;;;;;5031659;28;20203;-77
2023/03/11 11:24:19;;;;;;;1.10;1.10;;;9.60;85.80;;;;;;5026251;28;20271;-79
2023/03/11 11:27:20;;;;;;;1.27;0.75;;;9.70;83.80;;;;;;5030769;28;20546;-75
2023/03/11 11:29:47;;;;;;;1.27;1.08;;;9.80;80.40;;;;;;5021719;28;20232;-77
2023/03/11 11:32:25;;;;;;;0.90;0.90;;;9.50;78.80;;;;;;5030604;28;20577;-75
2023/03/11 11:34:57;;;;;;;1.02;1.00;;;8.90;80.00;;;;;;5029523;28;20554;-75
2023/03/11 11:37:25;;;;;;;1.30;0.90;;;8.90;78.60;;;;;;5030404;28;20530;-75
2023/03/11 11:40:08;;;;;;;1.40;1.30;;;8.70;80.40;;;;;;5031824;28;20204;-75
2023/03/11 11:42:35;;;;;;;0.80;0.80;;;9.00;78.90;;;;;;5033400;28;20203;-78
2023/03/11 11:45:30;;;;;;;1.00;1.00;;;11.20;76.30;;;;;;5028874;28;20230;-76
2023/03/11 11:47:59;;;;;;;0.60;0.60;;;13.80;65.00;;;;;;5031399;28;20786;-75
2023/03/11 11:50:33;;;;;;;1.00;1.00;;;13.80;59.60;;;;;;5026743;28;20287;-76
2023/03/11 11:53:19;;;;;;;0.70;0.70;;;13.00;59.30;;;;;;5029356;28;20180;-75
2023/03/11 11:55:51;;;;;;;0.90;0.90;;;11.90;61.40;;;;;;5032444;28;20280;-77
2023/03/11 11:58:17;;;;;;;1.23;1.13;;;10.90;61.80;;;;;;5031920;28;20182;-81
2023/03/11 12:00:53;;;;;;;1.23;0.95;;;10.10;63.00;;;;;;5033408;28;20571;-76
2023/03/11 12:03:49;;;;;;;1.35;1.17;;;9.30;66.90;;;;;;5025568;28;20281;-78
2023/03/11 12:06:44;;;;;;;2.10;1.20;;;8.40;73.80;;;;;;5032966;28;20180;-78
2023/03/11 12:09:28;;;;;;;0.88;0.88;;;7.60;77.80;;;;;;5029273;28;20220;-75
2023/03/11 12:12:18;;;;;;;1.45;1.38;;;7.10;80.30;;;;;;5034129;28;20226;-75
2023/03/11 12:15:20;;;;;;;1.08;1.08;;;6.60;81.90;;;;;;5031470;28;20208;-76
2023/03/11 12:17:49;;;;;;;1.20;1.20;;;6.10;86.40;;;;;;5029794;28;20562;-76
2023/03/11 12:20:41;;;;;;;1.35;1.30;;;5.80;87.80;;;;;;5032699;28;20307;-76
2023/03/11 12:23:15;;;;;;;1.45;1.45;;;5.60;88.90;;;;;;5030111;28;20175;-75
2023/03/11 12:26:12;;;;;;;1.92;1.25;;;5.60;88.50;;;;;;5036611;28;20187;-76
2023/03/11 12:29:12;;;;;;;1.48;1.42;;;5.40;90.00;;;;;;5025280;28;20196;-75
2023/03/11 12:31:40;;;;;;;1.00;1.00;;;5.20;91.00;;;;;;5019962;28;20254;-76
2023/03/11 12:34:10;;;;;;;1.45;1.35;;;5.20;90.70;;;;;;5032117;28;20227;-77
2023/03/11 12:36:38;;;;;;;1.30;1.15;;;5.20;90.40;;;;;;5029597;28;20644;-77
2023/03/11 12:39:07;;;;;;;1.13;1.13;;;5.40;89.10;;;;;;5036635;28;20190;-77
2023/03/11 12:41:44;;;;;;;1.15;1.10;;;5.60;88.30;;;;;;5033121;28;20188;-76
2023/03/11 12:44:27;;;;;;;2.53;1.25;;;5.70;88.20;;;;;;5026533;28;20794;-75
2023/03/11 12:46:53;;;;;;;1.45;1.30;;;5.90;89.90;;;;;;5029511;28;20639;-76
2023/03/11 12:49:23;;;;;;;1.25;1.25;;;6.00;89.00;;;;;;5026691;28;20223;-78
2023/03/11 12:52:21;;;;;;;2.05;1.45;;;6.10;88.90;;;;;;5027564;28;20172;-76
2023/03/11 12:54:57;;;;;;;1.67;1.17;;;6.10;88.20;;;;;;5026757;28;20200;-75
2023/03/11 12:57:44;;;;;;;3.70;1.67;;;6.10;86.50;;;;;;5034846;28;20232;-75
2023/03/11 13:00:16;;;;;;;1.98;1.40;;;6.10;85.60;;;;;;5033719;28;20246;-76
2023/03/11 13:03:09;;;;;;;0.85;0.85;;;5.90;87.30;;;;;;5028873;28;20627;-78
2023/03/11 13:05:49;;;;;;;1.30;1.20;;;5.30;87.80;;;;;;5029053;28;20183;-75
2023/03/11 13:08:50;;;;;;;1.73;1.50;;;5.10;89.30;;;;;;5026292;28;20406;-75
2023/03/11 13:11:37;;;;;;;3.47;1.13;;;5.10;89.90;;;;;;5023906;28;20250;-75